Time;durP1;ratioP1;P1;durP2;ratioP2;P2;SDS_P1;SDS_P2;PMS_P1;PMS_P2;Temp;Humidity;BMP_temperature;BMP_pressure;BME280_temperature;BME280_humidity;BME280_pressure;Samples;Min_cycle;Max_cycle;Signal;HPM_P1;HPM_P2
2023/01/15 00:01:42;;;;;;;12.80;1.73;;;;;;;-145.18;100.00;46726.81;6181821;23;20399;-69
2023/01/15 00:04:10;;;;;;;10.77;1.70;;;;;;;-145.18;100.00;46740.47;6181388;23;20020;-69
2023/01/15 00:06:38;;;;;;;11.77;1.30;;;;;;;-145.18;100.00;46750.25;6181742;23;20145;-69
2023/01/15 00:09:05;;;;;;;17.10;1.70;;;;;;;-145.18;100.00;46746.34;6181655;23;20672;-69
2023/01/15 00:11:30;;;;;;;27.17;3.50;;;;;;;-145.18;100.00;46752.19;6181445;23;20227;-69
2023/01/15 00:13:55;;;;;;;18.70;1.80;;;;;;;-145.18;100.00;46769.78;6181837;23;20235;-69
2023/01/15 00:16:23;;;;;;;15.37;2.50;;;;;;;-145.18;100.00;46777.59;6181604;23;20028;-69
2023/01/15 00:18:57;;;;;;;12.47;2.13;;;;;;;-145.18;100.00;46783.47;6181595;23;20009;-69
2023/01/15 00:21:25;;;;;;;13.77;1.40;;;;;;;-145.18;100.00;46795.19;6181563;23;20269;-69
2023/01/15 00:29:21;;;;;;;15.20;1.87;;;;;;;-145.18;100.00;46816.66;6182303;23;20214;-69
2023/01/15 00:31:57;;;;;;;15.07;2.10;;;;;;;-145.18;100.00;46812.75;6181249;23;20281;-69
2023/01/15 00:34:23;;;;;;;11.38;1.73;;;;;;;-145.18;100.00;46824.47;6181749;23;20230;-69
2023/01/15 00:36:48;;;;;;;19.43;1.87;;;;;;;-145.18;100.00;46814.72;6181922;23;20493;-71
2023/01/15 00:39:14;;;;;;;15.80;1.97;;;;;;;-145.18;100.00;46840.09;6182321;23;20430;-71
2023/01/15 00:41:39;;;;;;;9.90;1.13;;;;;;;-145.18;100.00;46828.38;6182022;23;20031;-70
2023/01/15 00:44:04;;;;;;;6.50;1.77;;;;;;;-145.18;100.00;46849.88;6181643;23;20044;-71
2023/01/15 00:46:30;;;;;;;10.77;1.77;;;;;;;-145.18;100.00;46863.53;6181795;23;20128;-71
2023/01/15 00:48:55;;;;;;;16.00;1.50;;;;;;;-145.18;100.00;46871.38;6181849;23;20009;-71
2023/01/15 00:51:20;;;;;;;10.47;1.43;;;;;;;-145.18;100.00;46867.44;6181564;23;20453;-71
2023/01/15 00:53:46;;;;;;;15.47;1.73;;;;;;;-145.18;100.00;46838.16;6181596;23;20005;-71
2023/01/15 00:56:11;;;;;;;14.07;1.40;;;;;;;-145.18;100.00;46861.59;6182075;23;20012;-70
2023/01/15 00:58:36;;;;;;;12.93;1.27;;;;;;;-145.18;100.00;46853.78;6181616;23;20013;-71
2023/01/15 01:01:02;;;;;;;18.13;1.70;;;;;;;-145.18;100.00;46857.69;6181579;23;20005;-70
2023/01/15 01:03:28;;;;;;;17.57;2.23;;;;;;;-145.18;100.00;46861.59;6181722;23;20543;-70
2023/01/15 01:05:58;;;;;;;13.00;1.60;;;;;;;-145.18;100.00;46885.03;6181453;23;20041;-70
2023/01/15 01:08:23;;;;;;;7.53;0.90;;;;;;;-145.18;100.00;46914.34;6181723;23;20005;-70
2023/01/15 01:10:48;;;;;;;11.93;1.37;;;;;;;-145.18;100.00;46883.09;6181328;23;20231;-70
2023/01/15 01:13:14;;;;;;;14.07;1.50;;;;;;;-145.18;100.00;46892.84;6155484;23;20113;-70
2023/01/15 01:15:39;;;;;;;16.33;2.00;;;;;;;-145.18;100.00;46892.84;6181906;23;20009;-70
2023/01/15 01:18:05;;;;;;;11.10;1.43;;;;;;;-145.18;100.00;46877.22;6181692;23;20499;-70
2023/01/15 01:20:31;;;;;;;16.20;1.93;;;;;;;-145.18;100.00;46887.00;6181980;23;20009;-70
2023/01/15 01:22:57;;;;;;;14.23;1.57;;;;;;;-145.18;100.00;46898.72;6181118;23;20043;-70
2023/01/15 01:25:22;;;;;;;12.03;1.13;;;;;;;-145.18;100.00;46894.81;6181850;23;20235;-70
2023/01/15 01:27:48;;;;;;;11.97;1.87;;;;;;;-145.18;100.00;46888.94;6181371;23;20345;-70
2023/01/15 01:30:14;;;;;;;13.80;2.13;;;;;;;-145.18;100.00;46887.00;6181949;23;20060;-70
2023/01/15 01:32:43;;;;;;;14.47;1.60;;;;;;;-145.18;100.00;46867.44;6181457;23;20231;-69
2023/01/15 01:35:08;;;;;;;11.57;2.83;;;;;;;-145.18;100.00;46840.09;6181585;23;20071;-69
2023/01/15 01:37:34;;;;;;;11.57;1.80;;;;;;;-145.18;100.00;46822.53;6181540;23;20623;-70
2023/01/15 01:39:59;;;;;;;24.80;3.73;;;;;;;-145.18;100.00;46824.47;6181685;23;20020;-70
2023/01/15 01:42:25;;;;;;;9.43;1.40;;;;;;;-145.18;100.00;46785.41;6181058;23;20370;-70
2023/01/15 01:44:50;;;;;;;17.33;2.20;;;;;;;-145.18;100.00;46785.41;6181487;23;20020;-70
2023/01/15 01:47:21;;;;;;;11.77;1.73;;;;;;;-145.18;100.00;46781.50;6183205;23;20009;-70
2023/01/15 01:49:58;;;;;;;14.10;1.90;;;;;;;-145.18;100.00;46775.66;6183662;23;20082;-69
2023/01/15 01:52:35;;;;;;;11.03;1.60;;;;;;;-145.18;100.00;46767.84;6182982;23;20258;-70
2023/01/15 01:55:03;;;;;;;14.67;2.13;;;;;;;-145.18;100.00;46765.88;6183352;23;20219;-69
2023/01/15 01:57:28;;;;;;;15.13;2.07;;;;;;;-145.18;100.00;46777.59;6183219;23;20317;-69
2023/01/15 01:59:55;;;;;;;10.00;2.00;;;;;;;-145.18;100.00;46801.03;6183066;23;20728;-70
2023/01/15 02:02:22;;;;;;;6.60;1.77;;;;;;;-145.18;100.00;46795.19;6182740;23;20019;-70
2023/01/15 02:04:47;;;;;;;11.73;2.40;;;;;;;-145.18;100.00;46799.09;6182881;23;20262;-70
2023/01/15 02:07:13;;;;;;;16.17;1.67;;;;;;;-145.18;100.00;46828.38;6183416;23;20241;-70
2023/01/15 02:09:38;;;;;;;13.87;1.83;;;;;;;-145.18;100.00;46842.06;6183345;23;20017;-69
2023/01/15 02:12:37;;;;;;;16.80;2.60;;;;;;;-145.18;100.00;46832.28;6182546;23;20016;-70
2023/01/15 02:15:25;;;;;;;11.67;1.60;;;;;;;-145.18;100.00;46826.44;6183025;23;20016;-70
2023/01/15 02:18:09;;;;;;;18.80;2.00;;;;;;;-145.18;100.00;46812.75;6174431;23;20231;-70
2023/01/15 02:20:49;;;;;;;13.90;2.90;;;;;;;-145.18;100.00;46799.09;6183433;23;20657;-70
2023/01/15 02:23:30;;;;;;;14.17;2.20;;;;;;;-145.18;100.00;46789.31;6182620;23;20696;-70
2023/01/15 02:26:06;;;;;;;19.13;3.87;;;;;;;-145.18;100.00;46767.84;6183129;23;20653;-70
2023/01/15 02:28:35;;;;;;;9.87;1.80;;;;;;;-145.18;100.00;46777.59;6183060;23;20231;-70
2023/01/15 02:31:13;;;;;;;14.50;2.23;;;;;;;-145.18;100.00;46765.88;6182866;23;20297;-70
2023/01/15 02:33:47;;;;;;;14.97;1.30;;;;;;;-145.18;100.00;46767.84;6182784;23;20305;-70
2023/01/15 02:36:15;;;;;;;19.60;2.63;;;;;;;-145.18;100.00;46761.97;6182907;23;20323;-70
2023/01/15 02:38:46;;;;;;;8.90;1.23;;;;;;;-145.18;100.00;46756.09;6182853;23;20302;-70
2023/01/15 02:41:16;;;;;;;11.23;1.57;;;;;;;-145.18;100.00;46777.59;6182970;23;20227;-70
2023/01/15 02:43:49;;;;;;;19.67;2.93;;;;;;;-145.18;100.00;46760.00;6182896;23;20243;-70
2023/01/15 02:46:18;;;;;;;13.63;1.73;;;;;;;-145.18;100.00;46781.50;6182932;23;20215;-70
2023/01/15 02:48:46;;;;;;;22.87;2.70;;;;;;;-145.18;100.00;46799.09;6182831;23;20231;-70
2023/01/15 02:51:17;;;;;;;14.87;2.60;;;;;;;-145.18;100.00;46797.13;6182933;23;20230;-70
2023/01/15 02:53:45;;;;;;;10.37;1.07;;;;;;;-145.18;100.00;46795.19;6182588;23;20219;-70
2023/01/15 02:56:16;;;;;;;32.40;3.70;;;;;;;-145.18;100.00;46775.66;6183020;23;20227;-69
2023/01/15 02:58:43;;;;;;;14.87;2.70;;;;;;;-145.18;100.00;46767.84;6182869;23;20219;-69
2023/01/15 03:03:50;;;;;;;12.07;1.35;;;;;;;-145.18;100.00;46761.97;6142982;23;20279;-70
2023/01/15 03:06:24;;;;;;;10.33;2.10;;;;;;;-145.18;100.00;46756.09;6152627;23;20068;-70
2023/01/15 03:08:49;;;;;;;14.20;1.93;;;;;;;-145.18;100.00;46744.38;6152758;23;20677;-70
2023/01/15 03:11:18;;;;;;;15.23;2.00;;;;;;;-145.18;100.00;46736.56;6152810;23;20235;-70
2023/01/15 03:13:54;;;;;;;9.53;1.30;;;;;;;-145.18;100.00;46742.44;6153107;23;20022;-70
2023/01/15 03:16:39;;;;;;;11.73;1.67;;;;;;;-145.18;100.00;46748.28;6152818;23;20223;-70
2023/01/15 03:19:04;;;;;;;12.63;1.83;;;;;;;-145.18;100.00;46742.44;6152684;23;20227;-70
2023/01/15 03:21:42;;;;;;;14.43;1.80;;;;;;;-145.18;100.00;46746.34;6153072;23;20289;-70
2023/01/15 03:24:10;;;;;;;8.13;1.57;;;;;;;-145.18;100.00;46750.25;6152670;23;20010;-70
2023/01/15 03:26:35;;;;;;;13.43;1.87;;;;;;;-145.18;100.00;46742.44;6152809;23;20228;-70
2023/01/15 03:29:04;;;;;;;13.97;1.93;;;;;;;-145.18;100.00;46734.63;6152319;23;20231;-68
2023/01/15 03:31:32;;;;;;;11.27;1.17;;;;;;;-145.18;100.00;46734.63;6152954;23;20028;-70
2023/01/15 03:33:57;;;;;;;6.50;1.10;;;;;;;-145.18;100.00;46742.44;6152217;23;20224;-70
2023/01/15 03:36:23;;;;;;;12.33;1.40;;;;;;;-145.18;100.00;46736.56;6153022;23;20231;-70
2023/01/15 03:38:49;;;;;;;13.50;2.23;;;;;;;-145.18;100.00;46722.91;6152812;23;20016;-70
2023/01/15 03:41:27;;;;;;;12.07;1.63;;;;;;;-145.18;100.00;46730.72;6152512;23;20017;-70
2023/01/15 03:44:19;;;;;;;10.83;1.50;;;;;;;-145.18;100.00;46722.91;6152424;23;20312;-70
2023/01/15 03:46:54;;;;;;;10.40;1.43;;;;;;;-145.18;100.00;46705.31;6152884;23;20219;-70
2023/01/15 03:49:41;;;;;;;9.83;1.43;;;;;;;-145.18;100.00;46707.28;6152447;23;20731;-70
2023/01/15 03:52:19;;;;;;;11.97;1.63;;;;;;;-145.18;100.00;46705.31;6150477;23;20290;-70
2023/01/15 03:54:52;;;;;;;10.43;1.37;;;;;;;-145.18;100.00;46699.47;6152682;23;20286;-70
2023/01/15 03:57:29;;;;;;;9.73;1.33;;;;;;;-145.18;100.00;46703.38;6152248;23;21004;-70
2023/01/15 04:00:02;;;;;;;16.97;2.10;;;;;;;-145.18;100.00;46691.66;6151058;23;20613;-70
2023/01/15 04:02:29;;;;;;;8.93;1.70;;;;;;;-145.18;100.00;46681.88;6152150;23;20258;-70
2023/01/15 04:04:56;;;;;;;13.70;2.07;;;;;;;-145.18;100.00;46695.56;6152557;23;20264;-70
2023/01/15 04:07:24;;;;;;;10.80;1.33;;;;;;;-145.18;100.00;46695.56;6151952;23;20266;-70
2023/01/15 04:09:50;;;;;;;15.27;1.73;;;;;;;-145.18;100.00;46683.84;6151952;23;20258;-70
2023/01/15 04:12:15;;;;;;;15.20;2.90;;;;;;;-145.18;100.00;46691.66;6125926;23;20231;-71
2023/01/15 04:14:40;;;;;;;9.40;1.17;;;;;;;-145.18;100.00;46691.66;6152801;23;20013;-71
2023/01/15 04:17:06;;;;;;;14.50;1.83;;;;;;;-145.18;100.00;46687.75;6151440;23;20485;-71
2023/01/15 04:19:31;;;;;;;8.00;1.20;;;;;;;-145.18;100.00;46689.69;6152539;23;20116;-71
2023/01/15 04:21:57;;;;;;;10.90;2.30;;;;;;;-145.18;100.00;46687.75;6152729;23;20013;-71
2023/01/15 04:24:22;;;;;;;19.47;2.13;;;;;;;-145.18;100.00;46693.59;6151941;23;20017;-70
2023/01/15 04:26:47;;;;;;;13.20;1.27;;;;;;;-145.18;100.00;46685.78;6152110;23;20001;-70
2023/01/15 04:29:13;;;;;;;18.83;1.87;;;;;;;-145.18;100.00;46685.78;6151934;23;20035;-70
2023/01/15 04:31:38;;;;;;;14.53;1.67;;;;;;;-145.18;100.00;46691.66;6152831;23;20010;-70
2023/01/15 04:34:03;;;;;;;14.03;2.00;;;;;;;-145.18;100.00;46691.66;6151698;23;20002;-71
2023/01/15 04:36:29;;;;;;;9.53;1.13;;;;;;;-145.18;100.00;46693.59;6152708;23;20093;-70
2023/01/15 04:38:56;;;;;;;8.10;1.37;;;;;;;-145.18;100.00;46687.75;6151887;23;20017;-70
2023/01/15 04:44:06;;;;;;;10.53;2.50;;;;;;;-145.18;100.00;46695.56;6151450;23;20581;-70
2023/01/15 04:46:34;;;;;;;15.90;3.30;;;;;;;-145.18;100.00;46699.47;6152328;23;20236;-70
2023/01/15 04:48:59;;;;;;;13.53;1.77;;;;;;;-145.18;100.00;46691.66;6151799;23;20014;-70
2023/01/15 04:51:24;;;;;;;17.73;1.80;;;;;;;-145.18;100.00;46691.66;6152552;23;20542;-70
2023/01/15 04:53:50;;;;;;;7.57;1.47;;;;;;;-145.18;100.00;46687.75;6152033;23;20381;-70
2023/01/15 04:56:15;;;;;;;16.23;1.50;;;;;;;-145.18;100.00;46691.66;6152085;23;20006;-70
2023/01/15 04:58:40;;;;;;;13.50;1.40;;;;;;;-145.18;100.00;46697.50;6152170;23;20010;-70
2023/01/15 05:01:13;;;;;;;17.27;2.13;;;;;;;-145.18;100.00;46689.69;6152232;23;20090;-70
2023/01/15 05:03:39;;;;;;;16.40;1.87;;;;;;;-145.18;100.00;46699.47;6154774;23;20032;-70
2023/01/15 05:06:04;;;;;;;8.50;1.00;;;;;;;-145.18;100.00;46701.41;6152367;23;20244;-70
2023/01/15 05:08:30;;;;;;;11.77;1.97;;;;;;;-145.18;100.00;46689.69;6152163;23;20391;-70
2023/01/15 05:10:55;;;;;;;12.33;2.30;;;;;;;-145.18;100.00;46707.28;6152485;23;20005;-71
2023/01/15 05:13:21;;;;;;;13.97;2.30;;;;;;;-145.18;100.00;46693.59;6151741;23;20009;-71
2023/01/15 05:15:47;;;;;;;13.30;1.80;;;;;;;-145.18;100.00;46693.59;6152266;23;20014;-71
2023/01/15 05:18:13;;;;;;;10.87;1.30;;;;;;;-145.18;100.00;46705.31;6151819;23;20040;-71
2023/01/15 05:20:40;;;;;;;19.73;3.57;;;;;;;-145.18;100.00;46703.38;6153097;23;20774;-71
2023/01/15 05:23:06;;;;;;;11.47;1.40;;;;;;;-145.18;100.00;46697.50;6153624;23;20243;-71
2023/01/15 05:25:32;;;;;;;11.10;1.27;;;;;;;-145.18;100.00;46705.31;6154029;23;20255;-71
2023/01/15 05:27:57;;;;;;;13.73;1.30;;;;;;;-145.18;100.00;46711.19;6153922;23;20097;-71
2023/01/15 05:30:22;;;;;;;12.00;2.10;;;;;;;-145.18;100.00;46707.28;6153876;23;20017;-71
2023/01/15 05:32:48;;;;;;;13.33;1.33;;;;;;;-145.18;100.00;46719.00;6153634;23;20371;-70
2023/01/15 05:35:13;;;;;;;12.33;1.80;;;;;;;-145.18;100.00;46709.22;6153783;23;20041;-70
2023/01/15 05:37:39;;;;;;;17.50;2.37;;;;;;;-145.18;100.00;46722.91;6153842;23;20009;-71
2023/01/15 05:40:05;;;;;;;14.77;1.60;;;;;;;-145.18;100.00;46715.09;6153575;23;20384;-71
2023/01/15 05:42:30;;;;;;;11.27;1.40;;;;;;;-145.18;100.00;46724.84;6153741;23;20010;-71
2023/01/15 05:44:55;;;;;;;14.90;2.07;;;;;;;-145.18;100.00;46724.84;6153777;23;20075;-71
2023/01/15 05:47:21;;;;;;;15.17;1.87;;;;;;;-145.18;100.00;46736.56;6153419;23;20013;-71
2023/01/15 05:49:47;;;;;;;10.57;1.63;;;;;;;-145.18;100.00;46724.84;6153715;23;20431;-71
2023/01/15 05:52:12;;;;;;;12.07;2.53;;;;;;;-145.18;100.00;46730.72;6153654;23;20013;-71
2023/01/15 05:54:38;;;;;;;16.93;2.53;;;;;;;-145.18;100.00;46734.63;6153584;23;20929;-71
2023/01/15 05:57:03;;;;;;;12.20;1.20;;;;;;;-145.18;100.00;46734.63;6153908;23;20517;-71
2023/01/15 05:59:31;;;;;;;11.53;1.20;;;;;;;-145.18;100.00;46722.91;6153780;23;20032;-71
2023/01/15 06:01:57;;;;;;;10.70;1.33;;;;;;;-145.18;100.00;46717.03;6153868;23;20006;-71
2023/01/15 06:04:24;;;;;;;10.47;1.13;;;;;;;-145.18;100.00;46720.94;6152858;23;20263;-71
2023/01/15 06:06:50;;;;;;;12.23;1.90;;;;;;;-145.18;100.00;46717.03;6152094;23;20282;-71
2023/01/15 06:09:16;;;;;;;15.67;1.63;;;;;;;-145.18;100.00;46711.19;6153394;23;20783;-71
2023/01/15 06:11:42;;;;;;;15.07;2.33;;;;;;;-145.18;100.00;46701.41;6153445;23;20231;-71
2023/01/15 06:14:07;;;;;;;13.50;1.53;;;;;;;-145.18;100.00;46705.31;6153142;23;20016;-71
2023/01/15 06:16:33;;;;;;;13.13;2.40;;;;;;;-145.18;100.00;46697.50;6153727;23;20439;-70
2023/01/15 06:19:03;;;;;;;14.33;1.43;;;;;;;-145.18;100.00;46701.41;6153323;23;20023;-71
2023/01/15 06:21:29;;;;;;;13.80;1.57;;;;;;;-145.18;100.00;46699.47;6153910;23;20056;-71
2023/01/15 06:23:55;;;;;;;12.33;1.63;;;;;;;-145.18;100.00;46697.50;6153001;23;20255;-71
2023/01/15 06:26:21;;;;;;;10.73;2.77;;;;;;;-145.18;100.00;46695.56;6153573;23;20247;-71
2023/01/15 06:28:47;;;;;;;18.70;1.63;;;;;;;-145.18;100.00;46691.66;6153847;23;20014;-71
2023/01/15 06:31:15;;;;;;;14.27;1.60;;;;;;;-145.18;100.00;46681.88;6153220;23;20633;-71
2023/01/15 06:33:40;;;;;;;19.17;1.93;;;;;;;-145.18;100.00;46687.75;6153201;23;20465;-71
2023/01/15 06:36:12;;;;;;;6.93;1.50;;;;;;;-145.18;100.00;46691.66;6153205;23;20239;-71
2023/01/15 06:38:38;;;;;;;15.60;1.83;;;;;;;-145.18;100.00;46689.69;6153392;23;20431;-71
2023/01/15 06:47:19;;;;;;;9.40;1.00;;;;;;;-145.18;100.00;46699.47;6153327;23;20242;-71
2023/01/15 06:49:18;;;;;;;11.70;1.77;;;;;;;-145.18;100.00;46691.66;6152957;23;20227;-71
2023/01/15 06:51:44;;;;;;;9.43;1.43;;;;;;;-145.18;100.00;46699.47;6153759;23;20634;-71
2023/01/15 06:54:09;;;;;;;11.43;1.67;;;;;;;-145.18;100.00;46693.59;6153082;23;20039;-70
2023/01/15 06:56:35;;;;;;;11.70;2.03;;;;;;;-145.18;100.00;46691.66;6153483;23;20013;-71
2023/01/15 06:59:00;;;;;;;17.07;1.40;;;;;;;-145.18;100.00;46691.66;6153128;23;20518;-71
2023/01/15 07:01:29;;;;;;;12.70;1.40;;;;;;;-145.18;100.00;46695.56;6153471;23;20064;-71
2023/01/15 07:03:55;;;;;;;12.97;1.70;;;;;;;-145.18;100.00;46683.84;6155602;23;20031;-71
2023/01/15 07:06:20;;;;;;;12.10;1.67;;;;;;;-145.18;100.00;46683.84;6153434;23;20240;-71
2023/01/15 07:08:46;;;;;;;10.03;1.50;;;;;;;-145.18;100.00;46679.94;6151549;23;20033;-71
2023/01/15 07:11:11;;;;;;;9.50;1.30;;;;;;;-145.18;100.00;46679.94;6153195;23;20041;-71
2023/01/15 07:13:36;;;;;;;15.10;1.73;;;;;;;-145.18;100.00;46674.06;6153181;23;20005;-71
2023/01/15 07:16:03;;;;;;;7.33;1.90;;;;;;;-145.18;100.00;46676.03;6153080;23;20021;-71
2023/01/15 07:18:30;;;;;;;12.43;2.93;;;;;;;-145.18;100.00;46677.97;6153653;23;20013;-71
2023/01/15 07:20:57;;;;;;;13.47;1.63;;;;;;;-145.18;100.00;46685.78;6153169;23;20232;-71
2023/01/15 07:23:24;;;;;;;8.63;1.20;;;;;;;-145.18;100.00;46679.94;6152741;23;20263;-71
2023/01/15 07:25:51;;;;;;;11.77;1.20;;;;;;;-145.18;100.00;46676.03;6153490;23;20224;-71
2023/01/15 07:28:17;;;;;;;16.30;1.30;;;;;;;-145.18;100.00;46677.97;6151635;23;20220;-71
2023/01/15 07:30:42;;;;;;;6.30;1.13;;;;;;;-145.18;100.00;46689.69;6153416;23;20255;-71
2023/01/15 07:33:08;;;;;;;9.87;1.30;;;;;;;-145.18;100.00;46699.47;6152557;23;20006;-71
2023/01/15 07:35:35;;;;;;;16.43;1.83;;;;;;;-145.18;100.00;46689.69;6153136;23;20088;-71
2023/01/15 07:38:01;;;;;;;12.17;1.20;;;;;;;-145.18;100.00;46693.59;6152631;23;20630;-71
2023/01/15 07:40:26;;;;;;;12.87;1.87;;;;;;;-145.18;100.00;46685.78;6152919;23;20343;-71
2023/01/15 07:49:44;;;;;;;15.33;1.73;;;;;;;-145.18;100.00;46695.56;6152866;23;20089;-70
2023/01/15 07:51:13;;;;;;;9.40;1.40;;;;;;;-145.18;100.00;46689.69;6152495;23;20222;-71
2023/01/15 07:53:38;;;;;;;12.30;1.27;;;;;;;-145.18;100.00;46681.88;6152272;23;20232;-71
2023/01/15 07:56:04;;;;;;;14.17;1.90;;;;;;;-145.18;100.00;46683.84;6152673;23;20105;-71
2023/01/15 07:58:29;;;;;;;8.90;1.43;;;;;;;-145.18;100.00;46681.88;6152497;23;20347;-71
2023/01/15 08:00:55;;;;;;;7.83;1.43;;;;;;;-145.18;100.00;46691.66;6148064;23;20013;-71
2023/01/15 08:03:20;;;;;;;12.73;1.10;;;;;;;-145.18;100.00;46683.84;6154356;23;20022;-71
2023/01/15 08:05:45;;;;;;;9.00;1.53;;;;;;;-145.18;100.00;46679.94;6152356;23;20013;-71
2023/01/15 08:08:15;;;;;;;14.33;1.50;;;;;;;-145.18;100.00;46683.84;6152131;23;20044;-71
2023/01/15 08:15:11;;;;;;;11.10;1.30;;;;;;;-145.18;100.00;46699.47;6151974;23;20485;-70
2023/01/15 08:16:12;;;;;;;14.57;1.63;;;;;;;-145.18;100.00;46709.22;6148238;23;20410;-71
2023/01/15 08:18:38;;;;;;;16.37;1.20;;;;;;;-145.18;100.00;46699.47;6150961;23;20777;-71
2023/01/15 08:21:04;;;;;;;15.17;1.80;;;;;;;-145.18;100.00;46709.22;6152171;23;21115;-68
2023/01/15 08:23:29;;;;;;;9.27;1.60;;;;;;;-145.18;100.00;46720.94;6152203;23;20033;-68
2023/01/15 08:25:59;;;;;;;11.37;1.43;;;;;;;-145.18;100.00;46730.72;6152336;23;20068;-70
2023/01/15 08:28:24;;;;;;;13.63;2.57;;;;;;;-145.18;100.00;46750.25;6151672;23;20555;-71
2023/01/15 08:30:49;;;;;;;10.23;1.77;;;;;;;-145.18;100.00;46746.34;6151181;23;20231;-71
2023/01/15 08:33:15;;;;;;;5.57;0.83;;;;;;;-145.18;100.00;46756.09;6152036;23;20017;-70
2023/01/15 08:35:40;;;;;;;6.50;1.30;;;;;;;-145.18;100.00;46767.84;6143989;23;20025;-71
2023/01/15 08:38:06;;;;;;;17.30;2.53;;;;;;;-145.18;100.00;46785.41;6151417;23;20009;-71
2023/01/15 08:40:32;;;;;;;16.53;2.40;;;;;;;-145.18;100.00;46814.72;6150801;23;20009;-71
2023/01/15 08:42:57;;;;;;;8.43;1.30;;;;;;;-145.18;100.00;46820.56;6144046;23;20613;-71
2023/01/15 08:45:23;;;;;;;12.90;1.70;;;;;;;-145.18;100.00;46818.63;6149930;23;20016;-70
2023/01/15 08:47:48;;;;;;;9.23;1.50;;;;;;;-145.18;100.00;46838.16;6152171;23;20013;-70
2023/01/15 08:50:14;;;;;;;19.23;2.40;;;;;;;-145.18;100.00;46845.97;6143835;23;20013;-71
2023/01/15 08:52:39;;;;;;;9.20;1.30;;;;;;;-145.18;100.00;46867.44;6150349;23;20014;-70
2023/01/15 08:55:05;;;;;;;9.77;1.83;;;;;;;-145.18;100.00;46904.56;6152639;23;20027;-71
2023/01/15 08:57:31;;;;;;;20.17;1.47;;;;;;;-145.18;100.00;46910.44;6154585;23;20067;-71
2023/01/15 08:59:56;;;;;;;11.93;1.80;;;;;;;-145.18;100.00;46922.16;6153338;23;20264;-71
2023/01/15 09:02:21;;;;;;;14.07;1.60;;;;;;;-145.18;100.00;46926.06;6152610;23;20033;-71
2023/01/15 09:04:47;;;;;;;10.63;1.40;;;;;;;-145.18;100.00;46984.66;6151285;23;20446;-71
2023/01/15 09:07:12;;;;;;;13.13;1.50;;;;;;;-145.18;100.00;47006.16;6152044;23;20072;-70
2023/01/15 09:09:37;;;;;;;15.13;1.73;;;;;;;-145.18;100.00;47025.69;6152954;23;20457;-70
2023/01/15 09:12:03;;;;;;;12.93;1.20;;;;;;;-145.18;100.00;47008.09;6153000;23;20386;-70
2023/01/15 09:14:28;;;;;;;7.17;1.00;;;;;;;-145.18;100.00;47053.03;6153168;23;20005;-70
2023/01/15 09:16:54;;;;;;;14.97;1.30;;;;;;;-145.18;100.00;47045.22;6153562;23;20020;-71
2023/01/15 09:19:20;;;;;;;13.47;1.47;;;;;;;-145.18;100.00;47035.44;6153274;23;20033;-70
2023/01/15 09:21:45;;;;;;;14.20;2.10;;;;;;;-145.18;100.00;47041.31;6153879;23;20001;-70
2023/01/15 09:24:11;;;;;;;20.93;1.30;;;;;;;-145.18;100.00;47088.19;6153663;23;20021;-71
2023/01/15 09:26:38;;;;;;;12.40;1.40;;;;;;;-145.18;100.00;47062.81;6153697;23;20442;-70
2023/01/15 09:29:06;;;;;;;9.43;1.77;;;;;;;-145.18;100.00;47060.84;6153282;23;20001;-71
2023/01/15 09:31:32;;;;;;;13.83;1.97;;;;;;;-145.18;100.00;47049.13;6154029;23;20235;-70
2023/01/15 09:33:58;;;;;;;11.10;1.50;;;;;;;-145.18;100.00;47064.75;6153205;23;20703;-70
2023/01/15 09:36:26;;;;;;;12.33;1.50;;;;;;;-145.18;100.00;47090.16;6153553;23;20318;-70
2023/01/15 09:38:52;;;;;;;14.43;1.30;;;;;;;-145.18;100.00;47074.53;6153543;23;20084;-70
2023/01/15 09:44:32;;;;;;;10.13;1.60;;;;;;;-145.18;100.00;47230.81;6152968;23;20020;-72
2023/01/15 09:47:10;;;;;;;15.03;1.73;;;;;;;-145.18;100.00;47303.09;6145900;23;20275;-70
2023/01/15 09:49:54;;;;;;;15.60;2.40;;;;;;;-145.18;100.00;47404.69;6153252;23;20224;-70
2023/01/15 09:52:23;;;;;;;11.17;1.73;;;;;;;-145.18;100.00;47383.19;6153220;23;20228;-70
2023/01/15 09:54:57;;;;;;;8.63;1.43;;;;;;;-145.18;100.00;47379.28;6153280;23;20223;-70
2023/01/15 09:57:24;;;;;;;15.93;1.77;;;;;;;-145.18;100.00;47551.22;6153649;23;20927;-70
2023/01/15 09:59:53;;;;;;;10.83;1.37;;;;;;;-145.18;100.00;47539.50;6153299;23;20565;-70
2023/01/15 10:02:28;;;;;;;10.10;1.67;;;;;;;-145.18;100.00;47535.59;6153062;23;20318;-71
2023/01/15 10:04:58;;;;;;;11.07;1.67;;;;;;;-145.18;100.00;47637.19;6152700;23;20342;-70
2023/01/15 10:07:33;;;;;;;10.80;2.00;;;;;;;-145.18;100.00;47578.56;6152923;23;20425;-70
2023/01/15 10:10:09;;;;;;;11.38;1.38;;;;;;;-145.18;100.00;47598.09;6153127;23;20222;-70
2023/01/15 10:12:35;;;;;;;;;;;;;;;-145.18;100.00;47650.88;6153884;23;20037;-70
2023/01/15 10:15:12;;;;;;;16.90;1.88;;;;;;;-145.18;100.00;47727.06;6153045;23;20224;-70
2023/01/15 10:17:52;;;;;;;14.00;1.67;;;;;;;-145.18;100.00;47715.34;6153256;23;20498;-70
2023/01/15 10:20:42;;;;;;;13.47;1.50;;;;;;;-145.18;100.00;47754.41;6152720;23;20311;-70
2023/01/15 10:23:44;;;;;;;7.70;1.50;;;;;;;-145.18;100.00;47744.66;6152826;23;20286;-70
2023/01/15 10:26:17;;;;;;;10.53;1.97;;;;;;;-145.18;100.00;47756.38;6153251;23;20227;-70
2023/01/15 10:29:05;;;;;;;16.97;1.43;;;;;;;-145.18;100.00;47750.50;6152783;23;20677;-70
2023/01/15 10:31:43;;;;;;;10.43;1.47;;;;;;;-145.18;100.00;47732.94;6153177;23;20231;-70
2023/01/15 10:34:20;;;;;;;13.03;1.10;;;;;;;-145.18;100.00;47742.69;6151347;23;20224;-70
2023/01/15 10:37:00;;;;;;;16.43;1.50;;;;;;;-145.18;100.00;47748.56;6152579;23;20220;-70
2023/01/15 10:39:48;;;;;;;9.77;2.17;;;;;;;-145.18;100.00;47744.66;6152779;23;20228;-70
2023/01/15 10:42:19;;;;;;;13.20;2.00;;;;;;;-145.18;100.00;47736.84;6108665;23;20231;-70
2023/01/15 10:44:53;;;;;;;6.80;1.90;;;;;;;-145.18;100.00;47758.31;6152502;23;20330;-70
2023/01/15 10:47:27;;;;;;;10.90;1.70;;;;;;;-145.18;100.00;47748.56;6152745;23;20228;-70
2023/01/15 10:49:53;;;;;;;11.33;1.87;;;;;;;-145.18;100.00;47691.91;6152105;23;20232;-70
2023/01/15 10:52:24;;;;;;;14.87;2.10;;;;;;;-145.18;100.00;47570.75;6152650;23;20291;-70
2023/01/15 10:54:56;;;;;;;11.10;1.90;;;;;;;-145.18;100.00;47338.25;6152631;23;20001;-70
2023/01/15 10:57:59;;;;;;;17.60;1.70;;;;;;;-145.18;100.00;47205.41;6152574;23;20235;-70
2023/01/15 11:00:25;;;;;;;14.90;2.23;;;;;;;-145.18;100.00;47068.66;6152056;23;20765;-70
2023/01/15 11:03:06;;;;;;;10.93;1.70;;;;;;;-145.18;100.00;47023.72;6155158;23;20251;-71
2023/01/15 11:05:33;;;;;;;5.07;0.80;;;;;;;-145.18;100.00;47031.53;6181400;23;20005;-70
2023/01/15 11:08:01;;;;;;;13.20;1.47;;;;;;;-145.18;100.00;47008.09;6182640;23;20243;-70
2023/01/15 11:10:27;;;;;;;12.13;2.50;;;;;;;-145.18;100.00;46996.38;6182048;23;20669;-71
2023/01/15 11:21:29;;;;;;;9.23;1.43;;;;;;;-145.18;100.00;46900.66;6182579;23;20242;-71
2023/01/15 11:23:57;;;;;;;7.83;1.27;;;;;;;-145.18;100.00;46918.25;6182356;23;20239;-71
2023/01/15 11:26:29;;;;;;;5.40;1.30;;;;;;;-145.18;100.00;46898.72;6181699;23;20012;-71
2023/01/15 11:28:55;;;;;;;9.43;1.23;;;;;;;-145.18;100.00;46922.16;6182320;23;20702;-71
2023/01/15 11:31:21;;;;;;;10.77;1.93;;;;;;;-145.18;100.00;46892.84;6179997;23;20254;-71
2023/01/15 11:34:01;;;;;;;7.23;1.20;;;;;;;-145.18;100.00;46900.66;6182093;23;20242;-71
2023/01/15 11:36:28;;;;;;;10.93;1.57;;;;;;;-145.18;100.00;46910.44;6182244;23;20059;-70
2023/01/15 11:38:54;;;;;;;14.50;1.43;;;;;;;-145.18;100.00;46935.81;6181909;23;20235;-70
2023/01/15 11:50:42;;;;;;;10.47;1.90;;;;;;;-145.18;100.00;46928.00;6181709;23;20742;-70
2023/01/15 11:52:38;;;;;;;12.23;1.10;;;;;;;-145.18;100.00;46822.53;6181883;23;20222;-70
2023/01/15 11:55:11;;;;;;;12.33;1.50;;;;;;;-145.18;100.00;46812.75;6181929;23;20530;-70
2023/01/15 11:57:38;;;;;;;6.13;2.07;;;;;;;-145.18;100.00;46793.22;6181972;23;20258;-71